createdAt,value
2019-03-11T00:01:14.778Z,6.37
2019-03-11T00:03:43.334Z,6.10
2019-03-11T00:06:10.636Z,5.75
2019-03-11T00:08:38.012Z,6.53
2019-03-11T00:11:05.518Z,6.12
2019-03-11T00:13:32.875Z,5.50
2019-03-11T00:16:00.358Z,5.72
2019-03-11T00:18:30.342Z,5.33
2019-03-11T00:20:57.876Z,6.10
2019-03-11T00:23:25.224Z,6.25
2019-03-11T00:25:52.546Z,5.25
2019-03-11T00:28:20.141Z,5.53
2019-03-11T00:30:47.786Z,4.97
2019-03-11T00:33:18.299Z,5.03
2019-03-11T00:35:45.645Z,5.15
2019-03-11T00:38:13.048Z,4.97
2019-03-11T00:40:40.459Z,4.80
2019-03-11T00:43:07.808Z,5.45
2019-03-11T00:45:35.173Z,4.55
2019-03-11T00:48:10.349Z,4.37
2019-03-11T00:50:37.625Z,3.90
2019-03-11T00:53:04.992Z,4.00
2019-03-11T00:55:32.336Z,3.40
2019-03-11T00:57:59.788Z,3.90
2019-03-11T01:00:31.622Z,3.00
2019-03-11T01:02:59.005Z,3.30
2019-03-11T01:05:26.378Z,3.20
2019-03-11T01:07:53.794Z,3.27
2019-03-11T01:10:21.461Z,3.27
2019-03-11T01:12:48.900Z,3.05
2019-03-11T01:15:16.196Z,2.52
2019-03-11T01:17:43.565Z,3.80
2019-03-11T01:20:11.567Z,3.15
2019-03-11T01:22:39.033Z,3.22
2019-03-11T01:25:07.149Z,4.10
2019-03-11T01:27:34.509Z,3.10
2019-03-11T01:30:01.888Z,3.50
2019-03-11T01:32:29.338Z,2.58
2019-03-11T01:34:56.764Z,3.02
2019-03-11T01:37:24.309Z,3.17
2019-03-11T01:39:51.740Z,2.72
2019-03-11T01:42:19.236Z,3.27
2019-03-11T01:44:46.601Z,2.70
2019-03-11T01:47:14.113Z,3.15
2019-03-11T01:49:41.511Z,3.00
2019-03-11T01:52:08.843Z,2.90
2019-03-11T01:54:36.193Z,3.27
2019-03-11T01:57:03.570Z,3.00
2019-03-11T01:59:30.989Z,2.65
2019-03-11T02:01:58.305Z,3.50
2019-03-11T02:04:25.659Z,3.27
2019-03-11T02:06:53.051Z,3.75
2019-03-11T02:09:20.519Z,3.65
2019-03-11T02:11:47.934Z,3.80
2019-03-11T02:14:15.319Z,3.40
2019-03-11T02:16:42.702Z,3.40
2019-03-11T02:19:10.008Z,3.42
2019-03-11T02:21:37.385Z,3.45
2019-03-11T02:24:04.738Z,4.58
2019-03-11T02:26:32.089Z,4.45
2019-03-11T02:28:59.531Z,4.45
2019-03-11T02:31:26.886Z,5.00
2019-03-11T02:33:54.250Z,5.62
2019-03-11T02:36:21.659Z,5.47
2019-03-11T02:38:49.110Z,6.70
2019-03-11T02:41:16.516Z,6.90
2019-03-11T02:43:43.861Z,6.70
2019-03-11T02:46:11.207Z,7.28
2019-03-11T02:48:40.546Z,6.80
2019-03-11T02:51:08.170Z,8.58
2019-03-11T02:53:35.590Z,8.85
2019-03-11T02:56:02.944Z,9.18
2019-03-11T02:58:30.453Z,8.88
2019-03-11T03:01:08.171Z,11.00
2019-03-11T03:03:39.681Z,9.15
2019-03-11T03:06:08.763Z,10.18
2019-03-11T03:08:36.262Z,9.50
2019-03-11T03:11:03.690Z,9.70
2019-03-11T03:13:31.111Z,9.58
2019-03-11T03:15:58.463Z,8.83
2019-03-11T03:18:25.765Z,8.70
2019-03-11T03:20:53.233Z,9.43
2019-03-11T03:23:20.754Z,8.70
2019-03-11T03:25:48.036Z,8.75
2019-03-11T03:28:15.394Z,7.33
2019-03-11T03:30:42.751Z,7.15
2019-03-11T03:33:10.186Z,6.40
2019-03-11T03:35:37.532Z,5.45
2019-03-11T03:38:05.124Z,5.62
2019-03-11T03:40:33.834Z,5.00
2019-03-11T03:43:01.231Z,4.90
2019-03-11T03:45:31.013Z,3.95
2019-03-11T03:47:59.659Z,3.10
2019-03-11T03:50:28.255Z,3.85
2019-03-11T03:52:55.735Z,2.98
2019-03-11T03:55:23.270Z,3.05
2019-03-11T03:57:50.823Z,2.75
2019-03-11T04:00:20.819Z,2.83
2019-03-11T04:02:48.511Z,2.30
2019-03-11T04:05:17.336Z,2.35
2019-03-11T04:07:44.833Z,3.08
2019-03-11T04:10:18.783Z,4.00
2019-03-11T04:12:47.005Z,2.37
2019-03-11T04:15:14.977Z,2.37
2019-03-11T04:17:42.856Z,2.62
2019-03-11T04:20:11.504Z,2.55
2019-03-11T04:22:39.295Z,2.72
2019-03-11T04:25:07.432Z,1.90
2019-03-11T04:27:35.555Z,2.37
2019-03-11T04:30:05.486Z,2.45
2019-03-11T04:32:33.104Z,2.72
2019-03-11T04:35:00.971Z,2.20
2019-03-11T04:37:28.512Z,2.50
2019-03-11T04:39:56.297Z,2.50
2019-03-11T04:42:23.949Z,2.37
2019-03-11T04:44:51.459Z,2.45
2019-03-11T04:47:32.040Z,2.55
2019-03-11T04:50:19.872Z,2.27
2019-03-11T04:52:47.851Z,3.50
2019-03-11T04:55:19.197Z,2.80
2019-03-11T04:57:54.142Z,2.90
2019-03-11T05:00:28.705Z,3.00
2019-03-11T05:02:55.989Z,3.12
2019-03-11T05:05:23.276Z,3.83
2019-03-11T05:07:50.631Z,2.90
2019-03-11T05:10:17.899Z,4.33
2019-03-11T05:12:45.189Z,9.33
2019-03-11T05:15:13.162Z,4.62
2019-03-11T05:17:40.549Z,4.65
2019-03-11T05:20:09.303Z,4.05
2019-03-11T05:22:36.605Z,4.55
2019-03-11T05:25:04.848Z,4.50
2019-03-11T05:27:32.150Z,4.75
2019-03-11T05:29:59.441Z,4.50
2019-03-11T05:32:26.726Z,4.55
2019-03-11T05:34:54.973Z,4.00
2019-03-11T05:37:22.331Z,7.08
2019-03-11T05:39:49.626Z,4.58
2019-03-11T05:42:16.901Z,3.85
2019-03-11T05:44:44.174Z,4.33
2019-03-11T05:47:11.487Z,4.90
2019-03-11T05:49:39.718Z,4.97
2019-03-11T05:52:06.997Z,4.40
2019-03-11T05:54:34.277Z,4.62
2019-03-11T05:57:01.559Z,4.78
2019-03-11T05:59:28.839Z,4.83
2019-03-11T06:01:56.189Z,4.58
2019-03-11T06:04:23.473Z,4.72
2019-03-11T06:06:50.764Z,5.25
2019-03-11T06:09:18.297Z,4.97
2019-03-11T06:11:45.619Z,4.67
2019-03-11T06:14:12.967Z,4.95
2019-03-11T06:16:40.257Z,5.53
2019-03-11T06:19:07.535Z,5.10
2019-03-11T06:21:42.403Z,5.15
2019-03-11T06:24:09.682Z,5.22
2019-03-11T06:26:36.979Z,4.90
2019-03-11T06:29:04.269Z,5.37
2019-03-11T06:31:31.641Z,4.47
2019-03-11T06:33:58.950Z,5.35
2019-03-11T06:36:26.309Z,4.55
2019-03-11T06:38:53.615Z,4.70
2019-03-11T06:41:20.904Z,5.03
2019-03-11T06:43:48.222Z,4.60
2019-03-11T06:46:15.567Z,4.90
2019-03-11T06:48:42.893Z,4.40
2019-03-11T06:51:10.248Z,4.80
2019-03-11T06:53:37.605Z,5.22
2019-03-11T06:56:04.953Z,4.33
2019-03-11T06:58:32.239Z,4.65
2019-03-11T07:00:59.540Z,4.20
2019-03-11T07:03:26.854Z,3.98
2019-03-11T07:05:54.191Z,4.08
2019-03-11T07:08:21.482Z,4.37
2019-03-11T07:10:48.792Z,4.10
2019-03-11T07:13:16.143Z,4.37
2019-03-11T07:15:43.405Z,5.33
2019-03-11T07:18:10.686Z,5.25
2019-03-11T07:20:37.962Z,4.83
2019-03-11T07:23:05.248Z,5.60
2019-03-11T07:25:32.532Z,5.50
2019-03-11T07:27:59.828Z,5.00
2019-03-11T07:30:27.173Z,5.17
2019-03-11T07:32:54.484Z,4.47
2019-03-11T07:35:21.788Z,4.78
2019-03-11T07:37:50.076Z,4.20
2019-03-11T07:40:28.502Z,6.97
2019-03-11T07:42:46.851Z,6.45
2019-03-11T07:45:14.706Z,3.83
2019-03-11T07:47:42.062Z,3.70
2019-03-11T07:50:10.170Z,3.20
2019-03-11T07:52:37.485Z,3.98
2019-03-11T07:55:06.380Z,4.45
2019-03-11T07:57:33.738Z,3.15
2019-03-11T08:00:01.016Z,6.00
2019-03-11T08:02:28.304Z,3.92
2019-03-11T08:04:55.676Z,3.05
2019-03-11T08:07:22.962Z,3.52
2019-03-11T08:09:50.294Z,3.27
2019-03-11T08:12:17.616Z,3.40
2019-03-11T08:14:44.887Z,3.58
2019-03-11T08:17:12.172Z,3.20
2019-03-11T08:19:39.490Z,3.02
2019-03-11T08:22:06.785Z,3.30
2019-03-11T08:24:34.056Z,2.77
2019-03-11T08:27:01.342Z,2.92
2019-03-11T08:29:28.623Z,2.83
2019-03-11T08:31:55.899Z,2.50
2019-03-11T08:34:23.189Z,2.90
2019-03-11T08:36:50.514Z,2.80
2019-03-11T08:39:17.896Z,3.08
2019-03-11T08:41:46.229Z,3.25
2019-03-11T08:44:13.544Z,3.58
2019-03-11T08:46:40.896Z,3.65
2019-03-11T08:49:08.154Z,3.80
2019-03-11T08:51:35.440Z,3.20
2019-03-11T08:54:02.726Z,4.35
2019-03-11T08:56:30.028Z,3.20
2019-03-11T08:58:57.333Z,3.90
2019-03-11T09:01:24.678Z,3.55
2019-03-11T09:03:51.991Z,3.30
2019-03-11T09:06:19.279Z,4.05
2019-03-11T09:08:46.556Z,3.30
2019-03-11T09:11:13.866Z,3.62
2019-03-11T09:13:41.218Z,4.00
2019-03-11T09:16:08.502Z,4.20
2019-03-11T09:18:35.780Z,3.70
2019-03-11T09:21:04.976Z,3.80
2019-03-11T09:23:32.060Z,3.83
2019-03-11T09:26:00.351Z,3.52
2019-03-11T09:28:27.752Z,3.15
2019-03-11T09:30:55.055Z,3.27
2019-03-11T09:33:22.331Z,3.35
2019-03-11T09:35:49.606Z,3.22
2019-03-11T09:38:16.886Z,3.17
2019-03-11T09:40:44.146Z,3.35
2019-03-11T09:43:11.413Z,3.25
2019-03-11T09:45:38.772Z,3.10
2019-03-11T09:48:07.029Z,2.87
2019-03-11T09:50:34.372Z,2.45
2019-03-11T09:53:04.711Z,2.70
2019-03-11T09:55:31.987Z,3.92
2019-03-11T09:57:59.255Z,2.70
2019-03-11T10:00:31.073Z,2.67
2019-03-11T10:02:58.344Z,2.47
2019-03-11T10:05:25.791Z,2.75
2019-03-11T10:07:53.250Z,2.70
2019-03-11T10:10:22.229Z,2.52
2019-03-11T10:12:49.601Z,2.22
2019-03-11T10:15:17.761Z,3.00
2019-03-11T10:17:45.055Z,2.40
2019-03-11T10:20:13.407Z,3.20
2019-03-11T10:22:40.701Z,2.98
2019-03-11T10:25:08.949Z,2.95
2019-03-11T10:27:36.299Z,2.72
2019-03-11T10:30:05.221Z,2.87
2019-03-11T10:32:32.551Z,3.08
2019-03-11T10:34:59.819Z,3.02
2019-03-11T10:37:27.113Z,3.52
2019-03-11T10:39:54.410Z,2.83
2019-03-11T10:42:21.685Z,3.12
2019-03-11T10:44:48.971Z,3.37
2019-03-11T10:47:16.261Z,3.62
2019-03-11T10:49:43.598Z,3.30
2019-03-11T10:52:10.945Z,3.40
2019-03-11T10:54:38.251Z,3.27
2019-03-11T10:57:05.539Z,3.30
2019-03-11T10:59:32.835Z,3.45
2019-03-11T11:02:00.182Z,3.65
2019-03-11T11:04:27.542Z,3.65
2019-03-11T11:06:54.828Z,4.05
2019-03-11T11:09:22.108Z,4.45
2019-03-11T11:11:49.417Z,3.67
2019-03-11T11:14:16.756Z,4.20
2019-03-11T11:16:46.365Z,3.70
2019-03-11T11:19:13.055Z,3.75
2019-03-11T11:21:40.327Z,3.58
2019-03-11T11:24:07.674Z,3.90
2019-03-11T11:26:35.001Z,4.08
2019-03-11T11:29:02.284Z,3.20
2019-03-11T11:31:29.559Z,3.95
2019-03-11T11:33:57.167Z,3.72
2019-03-11T11:36:24.493Z,4.30
2019-03-11T11:38:51.781Z,4.20
2019-03-11T11:41:19.056Z,3.65
2019-03-11T11:43:46.357Z,3.50
2019-03-11T11:46:13.694Z,3.30
2019-03-11T11:48:41.953Z,3.45
2019-03-11T11:51:09.226Z,3.45
2019-03-11T11:53:36.525Z,4.05
2019-03-11T11:56:03.932Z,3.65
2019-03-11T11:58:31.223Z,4.08
2019-03-11T12:00:58.606Z,4.35
2019-03-11T12:03:25.911Z,3.50
2019-03-11T12:05:53.228Z,3.90
2019-03-11T12:08:20.500Z,4.08
2019-03-11T12:10:47.866Z,3.20
2019-03-11T12:13:15.202Z,3.70
2019-03-11T12:15:42.554Z,3.77
2019-03-11T12:18:09.828Z,3.50
2019-03-11T12:20:37.177Z,4.70
2019-03-11T12:23:04.488Z,3.85
2019-03-11T12:25:31.824Z,3.72
2019-03-11T12:27:59.196Z,3.95
2019-03-11T12:30:28.010Z,3.87
2019-03-11T12:32:55.326Z,3.35
2019-03-11T12:35:22.624Z,3.15
2019-03-11T12:37:50.026Z,3.30
2019-03-11T12:40:17.768Z,2.70
2019-03-11T12:42:45.190Z,3.65
2019-03-11T12:45:13.576Z,2.60
2019-03-11T12:47:40.869Z,2.92
2019-03-11T12:50:09.688Z,2.58
2019-03-11T12:52:36.992Z,6.80
2019-03-11T12:55:04.648Z,4.33
2019-03-11T12:57:31.962Z,4.53
2019-03-11T12:59:59.318Z,4.65
2019-03-11T13:02:26.608Z,4.40
2019-03-11T13:04:53.914Z,4.60
2019-03-11T13:07:21.229Z,12.40
2019-03-11T13:09:48.610Z,4.35
2019-03-11T13:12:15.956Z,6.22
2019-03-11T13:14:43.272Z,3.58
2019-03-11T13:17:10.570Z,3.10
2019-03-11T13:19:37.908Z,3.15
2019-03-11T13:22:05.188Z,2.90
2019-03-11T13:24:32.466Z,4.12
2019-03-11T13:26:59.802Z,4.30
2019-03-11T13:29:27.202Z,3.30
2019-03-11T13:31:54.511Z,3.33
2019-03-11T13:34:21.888Z,3.70
2019-03-11T13:36:49.157Z,3.50
2019-03-11T13:39:16.510Z,4.00
2019-03-11T13:41:43.804Z,3.58
2019-03-11T13:44:11.094Z,4.00
2019-03-11T13:46:38.384Z,3.58
2019-03-11T13:49:05.760Z,4.20
2019-03-11T13:51:33.043Z,4.05
2019-03-11T13:54:00.400Z,4.03
2019-03-11T13:56:27.782Z,5.25
2019-03-11T13:58:55.130Z,4.25
2019-03-11T14:01:22.411Z,3.80
2019-03-11T14:03:49.769Z,4.12
2019-03-11T14:06:17.114Z,3.92
2019-03-11T14:08:44.396Z,3.87
2019-03-11T14:11:11.703Z,4.78
2019-03-11T14:13:39.066Z,4.90
2019-03-11T14:16:06.348Z,3.30
2019-03-11T14:18:33.643Z,4.30
2019-03-11T14:21:00.924Z,3.77
2019-03-11T14:23:28.217Z,4.20
2019-03-11T14:25:55.555Z,3.40
2019-03-11T14:28:22.838Z,3.90
2019-03-11T14:30:50.128Z,3.55
2019-03-11T14:33:17.413Z,3.70
2019-03-11T14:35:44.692Z,3.90
2019-03-11T14:38:12.045Z,3.83
2019-03-11T14:40:39.838Z,3.50
2019-03-11T14:43:07.162Z,3.80
2019-03-11T14:45:34.449Z,3.90
2019-03-11T14:48:01.803Z,3.80
2019-03-11T14:50:29.106Z,3.60
2019-03-11T14:52:58.797Z,3.83
2019-03-11T14:55:26.219Z,3.30
2019-03-11T14:57:53.508Z,3.85
2019-03-11T15:00:21.281Z,3.98
2019-03-11T15:02:48.681Z,5.15
2019-03-11T15:05:16.788Z,3.80
2019-03-11T15:07:44.237Z,2.90
2019-03-11T15:10:12.307Z,2.60
2019-03-11T15:12:41.389Z,2.50
2019-03-11T15:15:12.923Z,2.80
2019-03-11T15:17:43.245Z,2.62
2019-03-11T15:20:10.873Z,4.25
2019-03-11T15:22:38.163Z,4.17
2019-03-11T15:25:06.831Z,3.50
2019-03-11T15:27:34.320Z,2.92
2019-03-11T15:30:01.603Z,2.50
2019-03-11T15:32:28.959Z,2.60
2019-03-11T15:34:56.243Z,3.40
2019-03-11T15:37:23.572Z,3.10
2019-03-11T15:39:54.905Z,3.22
2019-03-11T15:42:22.455Z,3.05
2019-03-11T15:44:49.826Z,2.80
2019-03-11T15:47:17.161Z,2.80
2019-03-11T15:49:45.973Z,3.40
2019-03-11T15:52:13.341Z,4.17
2019-03-11T15:54:40.889Z,3.95
2019-03-11T15:57:08.291Z,2.92
2019-03-11T15:59:38.949Z,2.52
2019-03-11T16:02:09.219Z,2.45
2019-03-11T16:07:15.040Z,2.95
2019-03-11T16:09:42.490Z,2.45
2019-03-11T16:12:09.838Z,3.10
2019-03-11T16:14:48.961Z,2.20
2019-03-11T16:20:17.479Z,2.77
2019-03-11T16:22:44.983Z,2.30
2019-03-11T16:25:12.405Z,3.55
2019-03-11T16:27:40.930Z,2.60
2019-03-11T16:30:36.208Z,2.45
2019-03-11T16:33:03.565Z,2.50
2019-03-11T16:36:08.475Z,3.10
2019-03-11T16:38:29.490Z,2.35
2019-03-11T16:40:58.105Z,2.27
2019-03-11T16:43:28.424Z,3.40
2019-03-11T16:45:55.805Z,2.80
2019-03-11T16:48:23.152Z,2.80
2019-03-11T16:50:50.622Z,2.58
2019-03-11T16:53:17.982Z,3.90
2019-03-11T16:55:52.806Z,2.80
2019-03-11T16:58:20.136Z,3.20
2019-03-11T17:00:49.164Z,2.75
2019-03-11T17:03:16.462Z,3.00
2019-03-11T17:05:43.798Z,3.67
2019-03-11T17:08:11.192Z,3.15
2019-03-11T17:10:38.468Z,3.35
2019-03-11T17:13:05.775Z,2.87
2019-03-11T17:15:33.138Z,3.90
2019-03-11T17:18:01.578Z,3.85
2019-03-11T17:20:30.717Z,3.92
2019-03-11T17:22:58.150Z,3.87
2019-03-11T17:25:28.555Z,3.83
2019-03-11T17:28:04.644Z,4.83
2019-03-11T17:30:31.931Z,4.17
2019-03-11T17:33:04.785Z,4.00
2019-03-11T17:35:32.807Z,3.30
2019-03-11T17:38:00.074Z,3.85
2019-03-11T17:40:38.350Z,3.80
2019-03-11T17:43:05.643Z,4.00
2019-03-11T17:45:33.791Z,3.20
2019-03-11T17:48:11.172Z,2.80
2019-03-11T17:50:38.947Z,3.60
2019-03-11T17:53:19.333Z,2.40
2019-03-11T17:55:38.171Z,2.60
2019-03-11T17:58:05.568Z,3.30
2019-03-11T18:00:34.618Z,3.30
2019-03-11T18:03:01.969Z,3.85
2019-03-11T18:05:29.270Z,3.85
2019-03-11T18:07:56.566Z,3.40
2019-03-11T18:10:23.887Z,3.70
2019-03-11T18:12:51.181Z,3.90
2019-03-11T18:15:24.299Z,5.05
2019-03-11T18:17:51.877Z,5.17
2019-03-11T18:20:25.161Z,3.77
2019-03-11T18:22:52.741Z,3.83
2019-03-11T18:25:20.475Z,4.28
2019-03-11T18:27:47.849Z,4.47
2019-03-11T18:30:17.679Z,4.17
2019-03-11T18:32:45.029Z,4.65
2019-03-11T18:35:16.840Z,4.75
2019-03-11T18:38:04.077Z,5.42
2019-03-11T18:40:25.885Z,5.30
2019-03-11T18:46:03.732Z,5.95
2019-03-11T18:48:31.157Z,5.53
2019-03-11T18:51:11.345Z,5.35
2019-03-11T18:53:32.326Z,4.05
2019-03-11T18:55:59.694Z,4.67
2019-03-11T18:58:32.003Z,4.22
2019-03-11T19:00:59.366Z,3.83
2019-03-11T19:03:26.822Z,4.50
2019-03-11T19:05:54.187Z,5.20
2019-03-11T19:08:21.607Z,4.72
2019-03-11T19:10:49.092Z,5.37
2019-03-11T19:13:16.390Z,4.80
2019-03-11T19:15:43.811Z,5.00
2019-03-11T19:18:11.138Z,5.15
2019-03-11T19:20:38.505Z,5.25
2019-03-11T19:23:06.903Z,6.35
2019-03-11T19:25:34.285Z,6.10
2019-03-11T19:28:14.839Z,6.70
2019-03-11T19:30:42.149Z,6.78
2019-03-11T19:33:11.192Z,5.97
2019-03-11T19:35:38.638Z,9.13
2019-03-11T19:38:06.018Z,7.25
2019-03-11T19:40:33.388Z,5.45
2019-03-11T19:43:00.748Z,5.72
2019-03-11T19:45:28.154Z,6.10
2019-03-11T19:47:55.434Z,5.53
2019-03-11T19:50:22.722Z,6.65
2019-03-11T19:52:58.558Z,6.75
2019-03-11T19:55:19.060Z,5.87
2019-03-11T19:57:46.459Z,4.85
2019-03-11T20:00:18.217Z,4.95
2019-03-11T20:02:45.655Z,5.03
2019-03-11T20:05:13.943Z,4.53
2019-03-11T20:07:41.310Z,4.70
2019-03-11T20:10:09.762Z,4.53
2019-03-11T20:12:37.169Z,4.70
2019-03-11T20:15:06.276Z,4.85
2019-03-11T20:17:33.625Z,4.60
2019-03-11T20:20:01.048Z,5.00
2019-03-11T20:22:30.232Z,4.58
2019-03-11T20:25:05.202Z,4.28
2019-03-11T20:27:33.169Z,4.53
2019-03-11T20:30:02.168Z,5.05
2019-03-11T20:32:44.462Z,4.83
2019-03-11T20:35:17.317Z,5.20
2019-03-11T20:37:43.288Z,6.10
2019-03-11T20:40:11.309Z,5.15
2019-03-11T20:45:35.814Z,6.97
2019-03-11T20:48:03.333Z,6.25
2019-03-11T20:50:43.296Z,6.45
2019-03-11T20:55:59.246Z,6.97
2019-03-11T20:58:27.088Z,6.97
2019-03-11T21:00:56.542Z,7.87
2019-03-11T21:03:42.094Z,6.60
2019-03-11T21:06:01.332Z,7.80
2019-03-11T21:08:28.993Z,7.15
2019-03-11T21:10:57.670Z,7.55
2019-03-11T21:13:25.414Z,7.60
2019-03-11T21:15:58.529Z,7.05
2019-03-11T21:18:25.948Z,7.33
2019-03-11T21:21:04.799Z,6.55
2019-03-11T21:23:43.120Z,7.47
2019-03-11T21:26:09.588Z,5.65
2019-03-11T21:28:37.066Z,7.12
2019-03-11T21:31:08.618Z,13.13
2019-03-11T21:33:41.376Z,7.65
2019-03-11T21:36:09.115Z,9.53
2019-03-11T21:38:36.528Z,17.25
2019-03-11T21:41:03.907Z,17.95
2019-03-11T21:43:31.259Z,7.45
2019-03-11T21:45:58.648Z,9.00
2019-03-11T21:48:26.184Z,5.40
2019-03-11T21:50:54.106Z,9.88
2019-03-11T21:53:21.539Z,5.58
2019-03-11T21:55:49.279Z,4.20
2019-03-11T21:58:16.590Z,5.75
2019-03-11T22:00:44.039Z,5.20
2019-03-11T22:03:11.327Z,5.90
2019-03-11T22:05:38.704Z,12.13
2019-03-11T22:08:05.992Z,6.33
2019-03-11T22:10:33.288Z,5.78
2019-03-11T22:13:00.602Z,4.35
2019-03-11T22:15:27.947Z,4.75
2019-03-11T22:17:55.280Z,4.50
2019-03-11T22:20:22.698Z,4.22
2019-03-11T22:22:50.001Z,4.85
2019-03-11T22:25:17.830Z,4.92
2019-03-11T22:27:45.116Z,5.45
2019-03-11T22:30:24.701Z,5.15
2019-03-11T22:32:52.052Z,4.87
2019-03-11T22:35:28.926Z,5.40
2019-03-11T22:37:54.128Z,4.35
2019-03-11T22:40:21.592Z,4.15
2019-03-11T22:42:48.890Z,4.30
2019-03-11T22:45:21.037Z,5.00
2019-03-11T22:47:49.144Z,5.35
2019-03-11T22:50:17.744Z,4.35
2019-03-11T22:52:45.535Z,4.90
2019-03-11T22:55:13.122Z,4.80
2019-03-11T22:57:40.698Z,4.45
2019-03-11T23:00:22.955Z,4.80
2019-03-11T23:02:50.248Z,4.75
2019-03-11T23:05:17.539Z,5.28
2019-03-11T23:07:44.928Z,4.50
2019-03-11T23:10:12.382Z,5.60
2019-03-11T23:12:39.762Z,5.30
2019-03-11T23:15:07.767Z,5.37
2019-03-11T23:17:35.138Z,5.40
2019-03-11T23:20:02.447Z,5.05
2019-03-11T23:22:29.728Z,4.62
2019-03-11T23:24:57.111Z,5.40
2019-03-11T23:27:24.386Z,4.53
2019-03-11T23:29:51.692Z,4.90
2019-03-11T23:32:18.977Z,4.67
2019-03-11T23:34:46.245Z,4.80
2019-03-11T23:37:13.553Z,3.80
2019-03-11T23:39:40.848Z,4.20
2019-03-11T23:42:08.137Z,4.25
2019-03-11T23:44:35.421Z,4.97
2019-03-11T23:47:02.732Z,3.87
2019-03-11T23:49:30.008Z,4.35
2019-03-11T23:51:57.281Z,4.30
2019-03-11T23:54:24.564Z,4.37
2019-03-11T23:56:51.867Z,4.35
2019-03-11T23:59:19.191Z,4.97
